Time;durP1;ratioP1;P1;durP2;ratioP2;P2;SDS_P1;SDS_P2;PMS_P1;PMS_P2;Temp;Humidity;BMP_temperature;BMP_pressure;BME280_temperature;BME280_humidity;BME280_pressure;Samples;Min_cycle;Max_cycle;Signal;HPM_P1;HPM_P2
2022/07/07 00:01:15;;;;;;;5.82;3.40;;;;;;;20.68;82.12;98238.00;5073500;28;20043;-84
2022/07/07 00:03:40;;;;;;;7.00;3.42;;;;;;;20.77;78.36;98236.69;5070484;28;20036;-83
2022/07/07 00:06:06;;;;;;;3.70;3.05;;;;;;;20.80;76.62;98224.84;5069894;28;20060;-84
2022/07/07 00:08:31;;;;;;;8.02;3.72;;;;;;;20.92;76.55;98237.91;5071282;28;20021;-83
2022/07/07 00:10:56;;;;;;;7.32;3.67;;;;;;;20.87;76.97;98238.13;5073793;28;20045;-80
2022/07/07 00:13:22;;;;;;;4.15;3.05;;;;;;;20.92;77.68;98242.66;5073149;28;20067;-85
2022/07/07 00:15:48;;;;;;;4.47;3.20;;;;;;;20.88;74.85;98245.31;5072051;28;20089;-83
2022/07/07 00:18:14;;;;;;;6.35;3.67;;;;;;;20.83;73.89;98256.72;5072553;28;20024;-84
2022/07/07 00:20:40;;;;;;;4.70;3.33;;;;;;;20.82;74.03;98253.13;5073071;28;20055;-85
2022/07/07 00:23:05;;;;;;;5.50;3.90;;;;;;;20.87;74.09;98257.59;5072309;28;20112;-80
2022/07/07 00:25:30;;;;;;;6.13;2.90;;;;;;;20.82;67.82;98258.69;5064417;28;20025;-82
2022/07/07 00:27:56;;;;;;;5.25;3.20;;;;;;;20.80;67.82;98263.78;5060342;28;20477;-80
2022/07/07 00:30:21;;;;;;;5.60;3.15;;;;;;;20.84;68.29;98266.66;5067616;28;20028;-81
2022/07/07 00:32:47;;;;;;;5.82;2.67;;;;;;;20.81;67.82;98261.81;5064188;28;20051;-81
2022/07/07 00:35:13;;;;;;;5.43;2.97;;;;;;;20.74;65.54;98254.06;5067355;28;20029;-83
2022/07/07 00:37:38;;;;;;;4.18;3.00;;;;;;;20.78;66.60;98259.75;5071629;28;20021;-82
2022/07/07 00:40:04;;;;;;;5.57;2.97;;;;;;;20.80;65.02;98260.19;5069813;28;20163;-81
2022/07/07 00:42:30;;;;;;;4.80;2.95;;;;;;;20.83;65.78;98262.28;5070642;28;20025;-79
2022/07/07 00:44:55;;;;;;;3.28;2.67;;;;;;;20.78;65.27;98251.41;5068197;28;20050;-83
2022/07/07 00:47:21;;;;;;;5.57;3.13;;;;;;;20.81;64.03;98256.25;5063973;28;20025;-82
2022/07/07 00:49:46;;;;;;;4.80;3.22;;;;;;;20.85;63.45;98265.50;5062514;28;20388;-82
2022/07/07 00:52:11;;;;;;;9.82;3.10;;;;;;;20.88;65.06;98270.34;5062537;28;20032;-83
2022/07/07 00:54:37;;;;;;;4.15;3.00;;;;;;;20.76;63.12;98262.06;5061160;28;20084;-83
2022/07/07 00:57:05;;;;;;;5.03;2.90;;;;;;;20.81;62.77;98261.81;5059259;28;20174;-84
2022/07/07 00:59:31;;;;;;;3.70;2.80;;;;;;;20.87;63.88;98267.91;5056513;28;20036;-82
2022/07/07 01:01:57;;;;;;;4.78;2.53;;;;;;;20.84;63.85;98275.81;5056315;28;20131;-80
2022/07/07 01:04:22;;;;;;;4.95;2.72;;;;;;;20.83;63.44;98268.63;5056992;28;20035;-81
2022/07/07 01:06:48;;;;;;;5.38;3.00;;;;;;;20.90;63.80;98279.16;5060668;28;20045;-82
2022/07/07 01:09:14;;;;;;;3.97;2.67;;;;;;;20.87;64.49;98273.47;5061137;28;20017;-82
2022/07/07 01:11:50;;;;;;;7.03;3.03;;;;;;;20.88;64.31;98280.66;5059171;28;20040;-81
2022/07/07 01:14:17;;;;;;;4.30;2.90;;;;;;;20.85;63.62;98271.06;5057729;28;20071;-82
2022/07/07 01:16:43;;;;;;;3.88;2.83;;;;;;;20.79;63.65;98269.72;5062868;28;20144;-80
2022/07/07 01:19:08;;;;;;;5.03;2.63;;;;;;;20.70;65.96;98269.88;5065416;28;20457;-81
2022/07/07 01:22:00;;;;;;;3.95;2.83;;;;;;;20.69;64.42;98267.44;5064329;28;20020;-80
2022/07/07 01:24:27;;;;;;;3.50;2.83;;;;;;;20.66;65.04;98263.38;5059073;28;20110;-82
2022/07/07 01:27:06;;;;;;;6.03;3.40;;;;;;;20.67;66.32;98265.03;5063661;28;20048;-82
2022/07/07 01:29:40;;;;;;;8.00;3.83;;;;;;;20.55;69.65;98262.25;5055710;28;20012;-81
2022/07/07 01:32:07;;;;;;;4.88;3.63;;;;;;;20.40;73.79;98263.00;5057514;28;20052;-81
2022/07/07 01:34:33;;;;;;;6.00;3.75;;;;;;;20.26;74.55;98254.25;5055753;28;20025;-79
2022/07/07 01:36:59;;;;;;;5.28;3.55;;;;;;;20.18;75.83;98261.53;5053068;28;20124;-83
2022/07/07 01:39:24;;;;;;;4.68;3.35;;;;;;;20.15;78.32;98253.91;5055320;28;20017;-81
2022/07/07 01:41:50;;;;;;;3.75;3.20;;;;;;;20.13;79.03;98256.22;5056189;28;20025;-81
2022/07/07 01:44:15;;;;;;;5.53;3.15;;;;;;;20.09;80.81;98262.81;5052427;28;20444;-82
2022/07/07 01:46:40;;;;;;;10.10;3.60;;;;;;;19.95;82.27;98256.84;5055572;28;20039;-81
2022/07/07 01:49:06;;;;;;;6.40;3.75;;;;;;;19.85;83.44;98252.56;5052348;28;20059;-77
2022/07/07 01:51:31;;;;;;;4.55;3.63;;;;;;;19.74;83.76;98249.44;5051364;28;20029;-80
2022/07/07 01:53:56;;;;;;;5.78;3.20;;;;;;;19.87;85.79;98275.22;5050659;28;20024;-81
2022/07/07 01:56:22;;;;;;;3.70;3.00;;;;;;;19.87;85.82;98274.41;5051437;28;20025;-80
2022/07/07 01:58:47;;;;;;;5.63;3.65;;;;;;;19.85;88.60;98277.56;5050713;28;20028;-78
2022/07/07 02:01:12;;;;;;;5.32;3.50;;;;;;;19.89;87.67;98278.47;5050937;28;20025;-79
2022/07/07 02:03:38;;;;;;;6.68;3.47;;;;;;;19.91;89.07;98284.50;5049449;28;20033;-79
2022/07/07 02:06:03;;;;;;;3.92;3.13;;;;;;;19.91;91.79;98280.91;5051969;28;20104;-80
2022/07/07 02:08:29;;;;;;;6.78;3.65;;;;;;;19.71;99.06;98271.53;5053032;28;20040;-73
2022/07/07 02:11:12;;;;;;;7.82;4.10;;;;;;;19.72;100.00;98301.75;5050215;28;20107;-75
2022/07/07 02:13:48;;;;;;;4.70;3.80;;;;;;;19.55;100.00;98299.16;5050272;28;20112;-76
2022/07/07 02:16:15;;;;;;;4.78;3.78;;;;;;;19.43;100.00;98292.78;5053670;28;20049;-75
2022/07/07 02:18:42;;;;;;;5.63;4.15;;;;;;;19.34;100.00;98297.59;5053819;28;20050;-74
2022/07/07 02:21:09;;;;;;;7.45;4.00;;;;;;;19.21;100.00;98297.59;5053820;28;20025;-76
2022/07/07 02:23:36;;;;;;;6.47;4.18;;;;;;;19.03;100.00;98307.25;5053867;28;20111;-73
2022/07/07 02:26:02;;;;;;;6.95;4.45;;;;;;;18.93;100.00;98306.84;5052558;28;20036;-75
2022/07/07 02:28:28;;;;;;;5.38;4.50;;;;;;;18.85;100.00;98308.56;5053700;28;20031;-75
2022/07/07 02:30:54;;;;;;;6.03;4.28;;;;;;;18.83;100.00;98308.09;5053439;28;20021;-75
2022/07/07 02:33:20;;;;;;;4.55;3.80;;;;;;;18.82;100.00;98314.81;5053563;28;20504;-75
2022/07/07 02:35:47;;;;;;;5.13;4.03;;;;;;;18.72;100.00;98306.91;5053437;28;20028;-75
2022/07/07 02:38:12;;;;;;;5.10;4.15;;;;;;;18.68;100.00;98305.94;5053390;28;20029;-75
2022/07/07 02:40:37;;;;;;;7.40;4.25;;;;;;;18.67;100.00;98304.31;5085986;28;20017;-75
2022/07/07 02:43:04;;;;;;;5.57;4.28;;;;;;;18.72;100.00;98304.13;5053643;28;20036;-75
2022/07/07 02:45:30;;;;;;;5.30;4.47;;;;;;;18.67;100.00;98312.63;5053501;28;20378;-74
2022/07/07 02:47:55;;;;;;;5.57;4.60;;;;;;;18.54;100.00;98303.44;5053327;28;20028;-75
2022/07/07 02:50:22;;;;;;;7.20;4.80;;;;;;;18.51;100.00;98300.56;5053526;28;20393;-76
2022/07/07 02:52:47;;;;;;;10.68;5.35;;;;;;;18.24;100.00;98289.97;5053414;28;20017;-75
2022/07/07 02:55:13;;;;;;;8.93;5.47;;;;;;;18.11;100.00;98280.78;5053155;28;20389;-74
2022/07/07 02:57:38;;;;;;;6.95;5.25;;;;;;;18.03;100.00;98285.25;5053507;28;20025;-74
2022/07/07 03:00:06;;;;;;;5.63;4.82;;;;;;;17.83;100.00;98279.66;5053315;28;20036;-75
2022/07/07 03:02:31;;;;;;;8.52;5.38;;;;;;;17.88;100.00;98283.06;5051654;28;20086;-75
2022/07/07 03:04:56;;;;;;;9.32;5.40;;;;;;;17.99;100.00;98278.75;5053080;28;20060;-75
2022/07/07 03:07:22;;;;;;;6.43;5.53;;;;;;;18.05;100.00;98277.41;5052726;28;20052;-76
2022/07/07 03:09:47;;;;;;;9.20;6.15;;;;;;;18.18;100.00;98281.06;5052932;28;20029;-76
2022/07/07 03:12:13;;;;;;;10.02;6.40;;;;;;;-144.65;100.00;64500.88;5053037;28;20033;-76
2022/07/07 03:14:38;;;;;;;18.77;5.78;;;;;;;-144.65;100.00;64500.88;5051679;28;20025;-77
2022/07/07 03:17:04;;;;;;;7.72;5.25;;;;;;;-144.65;100.00;64500.88;5052960;28;20116;-76
2022/07/07 03:19:29;;;;;;;6.68;5.13;;;;;;;-144.65;100.00;64500.88;5052881;28;20032;-76
2022/07/07 03:21:54;;;;;;;5.65;5.15;;;;;;;-144.65;100.00;64500.88;5052904;28;20120;-74
2022/07/07 03:24:20;;;;;;;6.28;5.20;;;;;;;-144.65;100.00;64500.88;5052640;28;20033;-74
2022/07/07 03:26:45;;;;;;;9.80;4.97;;;;;;;-144.65;100.00;64500.88;5037857;28;20448;-76
2022/07/07 03:29:10;;;;;;;5.85;4.88;;;;;;;-144.65;100.00;64500.88;5052556;28;20025;-76
2022/07/07 03:31:36;;;;;;;5.18;4.40;;;;;;;-144.65;100.00;64500.88;5045082;28;20026;-76
2022/07/07 03:34:01;;;;;;;9.68;5.75;;;;;;;-144.65;100.00;64500.88;5032700;28;20462;-76
2022/07/07 03:36:27;;;;;;;8.25;5.72;;;;;;;-144.65;100.00;64500.88;5034867;28;20040;-76
2022/07/07 03:38:52;;;;;;;8.23;5.47;;;;;;;-144.65;100.00;64500.88;5071515;28;20053;-76
2022/07/07 03:41:17;;;;;;;8.80;4.97;;;;;;;-144.65;100.00;64500.88;5046640;28;20035;-75
2022/07/07 03:43:43;;;;;;;7.95;4.60;;;;;;;-144.65;100.00;64500.88;5046957;28;20393;-76
2022/07/07 03:46:08;;;;;;;8.70;5.28;;;;;;;-144.65;100.00;64500.88;5075311;28;20113;-75
2022/07/07 03:48:34;;;;;;;6.45;5.78;;;;;;;-144.65;100.00;64500.88;5032123;28;20049;-74
2022/07/07 03:50:59;;;;;;;8.63;5.20;;;;;;;-144.65;100.00;64500.88;5046085;28;20036;-76
2022/07/07 03:53:25;;;;;;;5.85;5.15;;;;;;;-144.65;100.00;64500.88;5051958;28;20474;-76
2022/07/07 03:55:50;;;;;;;5.78;5.10;;;;;;;-144.65;100.00;64500.88;5051910;28;20166;-75
2022/07/07 03:58:15;;;;;;;6.03;4.68;;;;;;;-144.65;100.00;64500.88;5051804;28;20911;-75
2022/07/07 04:00:41;;;;;;;6.93;4.72;;;;;;;-144.65;100.00;64500.88;5084022;28;20035;-73
2022/07/07 04:03:07;;;;;;;7.22;5.22;;;;;;;-144.65;100.00;64500.88;5042040;28;20020;-75
2022/07/07 04:05:32;;;;;;;6.55;5.03;;;;;;;-144.65;100.00;64500.88;5051905;28;20025;-75
2022/07/07 04:07:58;;;;;;;8.55;5.35;;;;;;;-144.65;100.00;64500.88;5051349;28;20056;-76
2022/07/07 04:10:23;;;;;;;6.10;4.97;;;;;;;-144.65;100.00;64500.88;5045646;28;20037;-75
2022/07/07 04:12:49;;;;;;;6.72;5.70;;;;;;;-144.65;100.00;64500.88;5040067;28;20036;-74
2022/07/07 04:15:14;;;;;;;6.82;5.78;;;;;;;-144.65;100.00;64500.88;5031264;28;20053;-74
2022/07/07 04:17:39;;;;;;;8.55;5.75;;;;;;;-144.65;100.00;64500.88;5049431;28;20029;-73
2022/07/07 04:20:05;;;;;;;5.78;5.07;;;;;;;-144.65;100.00;64500.88;5051352;28;20036;-74
2022/07/07 04:22:30;;;;;;;8.00;5.35;;;;;;;-144.65;100.00;64500.88;5051101;28;20025;-75
2022/07/07 04:24:57;;;;;;;8.88;5.75;;;;;;;-144.65;100.00;64500.88;5051185;28;20094;-73
2022/07/07 04:27:23;;;;;;;8.27;5.85;;;;;;;-144.65;100.00;64500.88;5051302;28;20025;-75
2022/07/07 04:29:48;;;;;;;9.20;6.07;;;;;;;-144.65;100.00;64500.88;5033278;28;20105;-75
2022/07/07 04:32:15;;;;;;;9.45;6.32;;;;;;;-144.65;100.00;64500.88;5031663;28;20037;-75
2022/07/07 04:34:40;;;;;;;7.25;5.80;;;;;;;-144.65;100.00;64500.88;5031399;28;20018;-75
2022/07/07 04:37:05;;;;;;;9.45;6.07;;;;;;;-144.65;100.00;64500.88;5030440;28;20044;-73
2022/07/07 04:39:31;;;;;;;7.85;5.72;;;;;;;-144.65;100.00;64500.88;5031206;28;20032;-74
2022/07/07 04:41:56;;;;;;;8.65;6.32;;;;;;;-144.65;100.00;64500.88;5031333;28;20021;-74
2022/07/07 04:44:22;;;;;;;9.35;6.03;;;;;;;-144.65;100.00;64500.88;5031235;28;20490;-74
2022/07/07 04:46:47;;;;;;;6.60;5.60;;;;;;;-144.65;100.00;64500.88;5031027;28;20032;-75
2022/07/07 04:49:13;;;;;;;7.57;5.55;;;;;;;-144.65;100.00;64500.88;5031069;28;20030;-75
2022/07/07 04:51:39;;;;;;;6.60;5.80;;;;;;;-144.65;100.00;64500.88;5030818;28;20030;-74
2022/07/07 04:54:04;;;;;;;7.25;5.60;;;;;;;-144.65;100.00;64500.88;5030720;28;20032;-76
2022/07/07 04:56:30;;;;;;;9.48;5.70;;;;;;;-144.65;100.00;64500.88;5035673;28;20043;-83
2022/07/07 04:58:55;;;;;;;9.27;6.35;;;;;;;-144.65;100.00;64500.88;5035556;28;20490;-78
2022/07/07 05:01:21;;;;;;;10.30;6.38;;;;;;;-144.65;100.00;64500.88;5031310;28;20025;-80
2022/07/07 05:03:46;;;;;;;7.93;6.50;;;;;;;-144.65;100.00;64500.88;5031894;28;20053;-81
2022/07/07 05:06:12;;;;;;;9.05;5.80;;;;;;;-144.65;100.00;64500.88;5049702;28;20025;-76
2022/07/07 05:08:40;;;;;;;8.73;6.22;;;;;;;-144.65;100.00;64500.88;5049726;28;20078;-79
2022/07/07 05:11:07;;;;;;;9.75;7.10;;;;;;;-144.65;100.00;64500.88;5032558;28;20032;-83
2022/07/07 05:13:33;;;;;;;9.73;6.15;;;;;;;-144.65;100.00;64500.88;5032960;28;20041;-75
2022/07/07 05:15:58;;;;;;;8.95;6.45;;;;;;;-144.65;100.00;64500.88;5036413;28;20057;-75
2022/07/07 05:18:24;;;;;;;9.38;6.93;;;;;;;-144.65;100.00;64500.88;5045683;28;20021;-77
2022/07/07 05:20:49;;;;;;;10.90;7.20;;;;;;;-144.65;100.00;64500.88;5054002;28;20116;-78
2022/07/07 05:23:16;;;;;;;10.10;6.35;;;;;;;-144.65;100.00;64500.88;5050892;28;20025;-80
2022/07/07 05:25:41;;;;;;;9.13;6.40;;;;;;;-144.65;100.00;64500.88;5051089;28;20056;-80
2022/07/07 05:28:09;;;;;;;7.97;6.40;;;;;;;-144.65;100.00;64500.88;5047709;28;20056;-85
2022/07/07 05:30:35;;;;;;;11.43;8.02;;;;;;;-144.65;100.00;64500.88;5085226;28;20029;-83
2022/07/07 05:33:00;;;;;;;8.93;6.20;;;;;;;-144.65;100.00;64500.88;5063679;28;20025;-85
2022/07/07 05:35:25;;;;;;;8.50;6.93;;;;;;;-144.65;100.00;64500.88;5061267;28;20040;-78
2022/07/07 05:37:51;;;;;;;8.98;6.65;;;;;;;-144.65;100.00;64500.88;5079721;28;20022;-75
2022/07/07 05:40:17;;;;;;;10.43;7.53;;;;;;;-144.65;100.00;64500.88;5053339;28;20029;-77
2022/07/07 05:42:42;;;;;;;10.18;6.68;;;;;;;-144.65;100.00;64500.88;5049345;28;20041;-75
2022/07/07 05:45:08;;;;;;;7.95;7.05;;;;;;;-144.65;100.00;64500.88;5050380;28;20032;-77
2022/07/07 05:47:33;;;;;;;7.75;5.40;;;;;;;-144.65;100.00;64500.88;5047100;28;20105;-77
2022/07/07 05:49:59;;;;;;;7.75;5.72;;;;;;;-144.65;100.00;64500.88;5053596;28;20040;-80
2022/07/07 05:52:26;;;;;;;9.70;5.78;;;;;;;-144.65;100.00;64500.88;5042197;28;20025;-78
2022/07/07 05:54:51;;;;;;;11.93;5.70;;;;;;;-144.65;100.00;64500.88;5037113;28;20466;-78
2022/07/07 05:57:17;;;;;;;6.75;5.20;;;;;;;-144.65;100.00;64500.88;5040926;28;20052;-75
2022/07/07 05:59:42;;;;;;;7.25;5.38;;;;;;;-144.65;100.00;64500.88;5056095;28;20025;-82
2022/07/07 06:02:07;;;;;;;6.60;4.90;;;;;;;-144.65;100.00;64500.88;5051938;28;20438;-77
2022/07/07 06:04:33;;;;;;;7.65;5.57;;;;;;;-144.65;100.00;64500.88;5048123;28;20409;-79
2022/07/07 06:06:58;;;;;;;6.75;5.60;;;;;;;-144.65;100.00;64500.88;5057122;28;20028;-80
2022/07/07 06:09:24;;;;;;;10.93;5.75;;;;;;;-144.65;100.00;64500.88;5057065;28;20049;-81
2022/07/07 06:11:50;;;;;;;10.30;5.57;;;;;;;-144.65;100.00;64500.88;5059007;28;20094;-80
2022/07/07 06:14:16;;;;;;;7.55;5.47;;;;;;;-144.65;100.00;64500.88;5054751;28;20025;-80
2022/07/07 06:16:42;;;;;;;9.70;5.68;;;;;;;-144.65;100.00;64500.88;5054046;28;20578;-79
2022/07/07 06:19:12;;;;;;;8.48;5.63;;;;;;;-144.65;100.00;64500.88;5053628;28;20069;-77
2022/07/07 06:21:39;;;;;;;6.28;4.95;;;;;;;-144.65;100.00;64500.88;5052223;28;20115;-79
2022/07/07 06:24:05;;;;;;;9.38;5.15;;;;;;;-144.65;100.00;64500.88;5054164;28;20083;-78
2022/07/07 06:26:30;;;;;;;9.80;5.18;;;;;;;-144.65;100.00;64500.88;5053698;28;20501;-80
2022/07/07 06:28:56;;;;;;;5.20;4.60;;;;;;;-144.65;100.00;64500.88;5053822;28;20029;-78
2022/07/07 06:31:21;;;;;;;8.80;4.85;;;;;;;-144.65;100.00;64500.88;5053804;28;20025;-77
2022/07/07 06:33:47;;;;;;;9.07;4.75;;;;;;;-144.65;100.00;64500.88;5053623;28;20040;-78
2022/07/07 06:36:12;;;;;;;6.07;4.85;;;;;;;-144.65;100.00;64500.88;5052722;28;20025;-80
2022/07/07 06:38:37;;;;;;;6.95;5.00;;;;;;;-144.65;100.00;64500.88;5053714;28;20055;-81
2022/07/07 06:41:03;;;;;;;5.30;4.80;;;;;;;-144.65;100.00;64500.88;5053164;28;20029;-79
2022/07/07 06:43:29;;;;;;;6.72;5.00;;;;;;;-144.65;100.00;64500.88;5053356;28;20032;-79
2022/07/07 06:45:54;;;;;;;6.80;5.10;;;;;;;-144.65;100.00;64500.88;5052838;28;20489;-77
2022/07/07 06:48:20;;;;;;;8.50;4.60;;;;;;;-144.65;100.00;64500.88;5053102;28;20086;-78
2022/07/07 06:50:45;;;;;;;7.07;4.78;;;;;;;-144.65;100.00;64500.88;5053273;28;20021;-78
2022/07/07 06:53:11;;;;;;;8.48;5.38;;;;;;;-144.65;100.00;64500.88;5053063;28;20025;-78
2022/07/07 06:55:36;;;;;;;7.05;4.88;;;;;;;-144.65;100.00;64500.88;5052788;28;20079;-77
2022/07/07 06:58:05;;;;;;;7.05;4.07;;;;;;;-144.65;100.00;64500.88;5053525;28;20025;-78
2022/07/07 07:00:33;;;;;;;7.85;5.13;;;;;;;-144.65;100.00;64500.88;5052338;28;20021;-77
2022/07/07 07:02:58;;;;;;;8.25;4.55;;;;;;;-144.65;100.00;64500.88;5050741;28;20195;-78
2022/07/07 07:05:24;;;;;;;5.43;3.80;;;;;;;-144.65;100.00;64500.88;5054453;28;20108;-75
2022/07/07 07:07:50;;;;;;;7.22;4.25;;;;;;;-144.65;100.00;64500.88;5058404;28;20079;-77
2022/07/07 07:10:15;;;;;;;5.53;4.20;;;;;;;-144.65;100.00;64500.88;5062091;28;20012;-74
2022/07/07 07:12:41;;;;;;;5.68;4.25;;;;;;;-144.65;100.00;64500.88;5063632;28;20055;-76
2022/07/07 07:15:07;;;;;;;5.30;4.35;;;;;;;-144.65;100.00;64500.88;5053175;28;20046;-75
2022/07/07 07:17:33;;;;;;;5.57;4.35;;;;;;;-144.65;100.00;64500.88;5061085;28;20029;-76
2022/07/07 07:19:58;;;;;;;5.13;4.10;;;;;;;-144.65;100.00;64500.88;5068895;28;20111;-78
2022/07/07 07:22:24;;;;;;;5.50;3.80;;;;;;;-144.65;100.00;64500.88;5051746;28;20021;-74
2022/07/07 07:24:50;;;;;;;9.13;5.18;;;;;;;-144.65;100.00;64500.88;5052264;28;20021;-73
2022/07/07 07:27:16;;;;;;;7.50;4.40;;;;;;;-144.65;100.00;64500.88;5053690;28;20021;-77
2022/07/07 07:29:41;;;;;;;6.60;3.70;;;;;;;-144.65;100.00;64500.88;5054117;28;20522;-73
2022/07/07 07:32:07;;;;;;;4.60;3.67;;;;;;;-144.65;100.00;64500.88;5055617;28;20036;-74
2022/07/07 07:34:32;;;;;;;6.13;4.15;;;;;;;-144.65;100.00;64500.88;5053341;28;20017;-74
2022/07/07 07:36:58;;;;;;;5.53;3.58;;;;;;;-144.65;100.00;64500.88;5049359;28;20038;-75
2022/07/07 07:39:23;;;;;;;4.57;3.15;;;;;;;-144.65;100.00;64500.88;5082278;28;20028;-77
2022/07/07 07:41:48;;;;;;;4.63;3.22;;;;;;;-144.65;100.00;64500.88;5052835;28;20386;-75
2022/07/07 07:45:09;;;;;;;7.43;3.38;;;;;;;-144.65;100.00;64500.88;5054710;28;20057;-76
2022/07/07 07:46:59;;;;;;;5.15;3.97;;;;;;;-144.65;100.00;64500.88;5049738;28;20028;-74
2022/07/07 07:49:24;;;;;;;4.60;3.47;;;;;;;-144.65;100.00;64500.88;5052146;28;20025;-73
2022/07/07 07:51:50;;;;;;;4.60;3.78;;;;;;;-144.65;100.00;64500.88;5067830;28;20111;-75
2022/07/07 07:54:15;;;;;;;7.18;4.05;;;;;;;-144.65;100.00;64500.88;5056559;28;20020;-75
2022/07/07 07:56:41;;;;;;;5.25;3.30;;;;;;;-144.65;100.00;64500.88;5062947;28;20481;-75
2022/07/07 07:59:06;;;;;;;4.80;3.13;;;;;;;-144.65;100.00;64500.88;5061878;28;20551;-75
2022/07/07 08:01:32;;;;;;;4.20;3.15;;;;;;;-144.65;100.00;64500.88;5060362;28;20035;-77
2022/07/07 08:03:57;;;;;;;5.32;3.35;;;;;;;-144.65;100.00;64500.88;5062777;28;20049;-76
2022/07/07 08:06:22;;;;;;;4.40;3.33;;;;;;;-144.65;100.00;64500.88;5064585;28;20021;-75
2022/07/07 08:08:48;;;;;;;4.53;3.33;;;;;;;-144.65;100.00;64500.88;5049840;28;20370;-75
2022/07/07 08:11:14;;;;;;;4.70;3.40;;;;;;;-144.65;100.00;64500.88;5051729;28;20017;-75
2022/07/07 08:13:39;;;;;;;4.13;3.35;;;;;;;-144.65;100.00;64500.88;5066982;28;20392;-75
2022/07/07 08:16:04;;;;;;;9.00;3.10;;;;;;;-144.65;100.00;64500.88;5054299;28;20045;-75
2022/07/07 08:18:30;;;;;;;3.53;2.70;;;;;;;-144.65;100.00;64500.88;5063787;28;20152;-75
2022/07/07 08:20:55;;;;;;;3.85;2.95;;;;;;;-144.65;100.00;64500.88;5060449;28;20404;-76
2022/07/07 08:23:21;;;;;;;5.70;3.25;;;;;;;-144.65;100.00;64500.88;5056684;28;20017;-75
2022/07/07 08:25:46;;;;;;;5.85;3.42;;;;;;;-144.65;100.00;64500.88;5067303;28;20074;-75
2022/07/07 08:28:11;;;;;;;4.97;3.00;;;;;;;-144.65;100.00;64500.88;5055587;28;20028;-75
2022/07/07 08:30:37;;;;;;;4.10;2.92;;;;;;;-144.65;100.00;64500.88;5095730;28;20124;-75
2022/07/07 08:33:05;;;;;;;4.15;3.13;;;;;;;-144.65;100.00;64500.88;5062352;28;20101;-75
2022/07/07 08:35:30;;;;;;;4.00;3.10;;;;;;;-144.65;100.00;64500.88;5055592;28;20009;-74
2022/07/07 08:37:56;;;;;;;4.70;2.75;;;;;;;-144.65;100.00;64500.88;5052865;28;20028;-74
2022/07/07 08:40:22;;;;;;;4.68;2.85;;;;;;;-144.65;100.00;64500.88;5063524;28;20024;-74
2022/07/07 08:42:48;;;;;;;4.47;2.90;;;;;;;-144.65;100.00;64500.88;5053438;28;20025;-74
2022/07/07 08:45:14;;;;;;;3.60;2.95;;;;;;;-144.65;100.00;64500.88;5049868;28;20025;-74
2022/07/07 08:47:40;;;;;;;5.20;3.17;;;;;;;-144.65;100.00;64500.88;5065778;28;20024;-76
2022/07/07 08:50:06;;;;;;;4.50;3.42;;;;;;;-144.65;100.00;64500.88;5048634;28;20481;-75
2022/07/07 08:52:31;;;;;;;3.95;2.90;;;;;;;-144.65;100.00;64500.88;5048587;28;20472;-75
2022/07/07 08:54:57;;;;;;;6.45;3.25;;;;;;;-144.65;100.00;64500.88;5044776;28;20032;-74
2022/07/07 08:57:24;;;;;;;5.10;3.55;;;;;;;-144.65;100.00;64500.88;5043104;28;20141;-75
2022/07/07 08:59:50;;;;;;;5.80;3.00;;;;;;;-144.65;100.00;64500.88;5048588;28;20036;-74
2022/07/07 09:02:16;;;;;;;5.03;2.90;;;;;;;-144.65;100.00;64500.88;5047009;28;20033;-73
2022/07/07 09:04:41;;;;;;;4.45;3.00;;;;;;;-144.65;100.00;64500.88;5046447;28;20067;-74
2022/07/07 09:07:07;;;;;;;4.93;2.95;;;;;;;-144.65;100.00;64500.88;5045903;28;20398;-73
2022/07/07 09:09:35;;;;;;;4.47;2.88;;;;;;;-144.65;100.00;64500.88;5046540;28;20040;-74
2022/07/07 09:12:03;;;;;;;3.47;2.53;;;;;;;-144.65;100.00;64500.88;5045256;28;20036;-74
2022/07/07 09:14:52;;;;;;;8.82;3.15;;;;;;;-144.65;100.00;64500.88;5044685;28;20473;-73
2022/07/07 09:17:33;;;;;;;5.75;2.85;;;;;;;-144.65;100.00;64500.88;5046232;28;20051;-73
2022/07/07 09:20:14;;;;;;;4.65;3.00;;;;;;;-144.65;100.00;64500.88;5046900;28;20025;-74
2022/07/07 09:22:42;;;;;;;4.72;3.10;;;;;;;-144.65;100.00;64500.88;5043720;28;20025;-75
2022/07/07 09:25:08;;;;;;;4.63;2.70;;;;;;;-144.65;100.00;64500.88;5046351;28;20370;-74
2022/07/07 09:27:49;;;;;;;4.43;3.15;;;;;;;-144.65;100.00;64500.88;5046815;28;20040;-74
2022/07/07 09:30:28;;;;;;;3.25;2.72;;;;;;;-144.65;100.00;64500.88;5042922;28;20048;-77
2022/07/07 09:32:53;;;;;;;4.25;2.85;;;;;;;-144.65;100.00;64500.88;5048983;28;20490;-75
2022/07/07 09:38:14;;;;;;;4.22;2.83;;;;;;;-144.65;100.00;64500.88;5045127;28;20567;-78
2022/07/07 09:40:52;;;;;;;4.65;2.95;;;;;;;-144.65;100.00;64500.88;5046302;28;20090;-75
2022/07/07 09:43:18;;;;;;;3.80;2.60;;;;;;;-144.65;100.00;64500.88;5046317;28;20021;-74
2022/07/07 09:46:08;;;;;;;5.68;2.92;;;;;;;-144.65;100.00;64500.88;5047163;28;20048;-79
2022/07/07 09:48:34;;;;;;;5.45;2.70;;;;;;;-144.65;100.00;64500.88;5038716;28;20528;-79
2022/07/07 09:51:13;;;;;;;3.65;2.60;;;;;;;-144.65;100.00;64500.88;5047221;28;20033;-76
2022/07/07 09:54:03;;;;;;;3.75;2.85;;;;;;;-144.65;100.00;64500.88;5046646;28;20035;-73
2022/07/07 09:56:37;;;;;;;4.18;2.97;;;;;;;-144.65;100.00;64500.88;5045131;28;20458;-76
2022/07/07 09:59:10;;;;;;;4.85;2.85;;;;;;;-144.65;100.00;64500.88;5046561;28;20029;-76
2022/07/07 10:01:40;;;;;;;3.28;2.75;;;;;;;-144.65;100.00;64500.88;5046216;28;20036;-77
2022/07/07 10:04:10;;;;;;;3.65;2.80;;;;;;;-144.65;100.00;64500.88;5046449;28;20036;-77
2022/07/07 10:06:38;;;;;;;3.17;2.53;;;;;;;-144.65;100.00;64500.88;5045177;28;20033;-79
2022/07/07 10:09:04;;;;;;;4.60;2.83;;;;;;;-144.65;100.00;64500.88;5039579;28;20025;-77
2022/07/07 10:11:41;;;;;;;4.18;3.03;;;;;;;-144.65;100.00;64500.88;5047085;28;20033;-77
2022/07/07 10:14:28;;;;;;;5.07;3.45;;;;;;;-144.65;100.00;64500.88;5052861;28;20035;-76
2022/07/07 10:16:54;;;;;;;4.50;3.05;;;;;;;-144.65;100.00;64500.88;5050550;28;20148;-78
2022/07/07 10:19:24;;;;;;;6.55;2.92;;;;;;;-144.65;100.00;64500.88;5046376;28;20517;-77
2022/07/07 10:21:54;;;;;;;3.63;2.90;;;;;;;-144.65;100.00;64500.88;5044660;28;20619;-76
2022/07/07 10:24:25;;;;;;;4.30;3.08;;;;;;;-144.65;100.00;64500.88;5044143;28;20029;-78
2022/07/07 10:26:55;;;;;;;3.22;2.70;;;;;;;-144.65;100.00;64500.88;5046086;28;20036;-76
2022/07/07 10:29:54;;;;;;;4.55;3.08;;;;;;;-144.65;100.00;64500.88;5045701;28;20032;-76
2022/07/07 10:32:31;;;;;;;3.60;2.90;;;;;;;-144.65;100.00;64500.88;5044616;28;20392;-76
2022/07/07 10:34:58;;;;;;;10.02;3.30;;;;;;;-144.65;100.00;64500.88;5045091;28;20036;-77
2022/07/07 10:37:26;;;;;;;4.43;3.03;;;;;;;-144.65;100.00;64500.88;5051549;28;20024;-75
2022/07/07 10:39:54;;;;;;;3.50;2.78;;;;;;;-144.65;100.00;64500.88;5055516;28;20083;-78
2022/07/07 10:42:38;;;;;;;4.22;2.88;;;;;;;-144.65;100.00;64500.88;5056270;28;20087;-76
2022/07/07 10:45:07;;;;;;;4.95;3.42;;;;;;;-144.65;100.00;64500.88;5048345;28;20128;-77
2022/07/07 10:47:35;;;;;;;4.72;3.70;;;;;;;-144.65;100.00;64500.88;5047329;28;20142;-77
2022/07/07 10:50:01;;;;;;;6.20;3.03;;;;;;;-144.65;100.00;64500.88;5048071;28;20052;-75
2022/07/07 10:52:38;;;;;;;5.53;3.20;;;;;;;-144.65;100.00;64500.88;5048334;28;20036;-77
2022/07/07 10:55:04;;;;;;;7.97;3.47;;;;;;;-144.65;100.00;64500.88;5047126;28;20116;-79
2022/07/07 10:57:41;;;;;;;4.55;2.65;;;;;;;-144.65;100.00;64500.88;5047092;28;20607;-76
2022/07/07 11:00:11;;;;;;;4.95;2.80;;;;;;;-144.65;100.00;64500.88;5047311;28;20083;-76
2022/07/07 11:02:44;;;;;;;6.78;3.25;;;;;;;-144.65;100.00;64500.88;5046094;28;20435;-79
2022/07/07 11:05:10;;;;;;;3.60;2.97;;;;;;;-144.65;100.00;64500.88;5047934;28;20063;-75
2022/07/07 11:07:35;;;;;;;6.40;2.97;;;;;;;-144.65;100.00;64500.88;5050579;28;20504;-74
2022/07/07 11:10:10;;;;;;;4.40;2.80;;;;;;;-144.65;100.00;64500.88;5058216;28;20286;-79
2022/07/07 11:12:46;;;;;;;3.90;3.15;;;;;;;-144.65;100.00;64500.88;5057691;28;20036;-80
2022/07/07 11:15:16;;;;;;;5.25;3.17;;;;;;;-144.65;100.00;64500.88;5060729;28;20033;-78
2022/07/07 11:17:43;;;;;;;4.38;3.08;;;;;;;-144.65;100.00;64500.88;5050992;28;20033;-77